This is the latest recevied weather packets stored in our database for station/object VR2MW-X. If no packets are shown the sender has not sent any weather packets the latest 10 day(s).
| Time | Temp. | Humidity | Pressure | Rain* | Wind** | Luminosity | Snow |
|---|---|---|---|---|---|---|---|
| 1777526323 | 23.89° C | 58% | 1015.7 hPa | - | - | - | - |
| 1777525712 | 23.89° C | 57% | 1015.8 hPa | - | - | - | - |
| 1777525102 | 23.89° C | 56% | 1015.8 hPa | - | - | - | - |
| 1777524492 | 23.89° C | 56% | 1016.1 hPa | - | - | - | - |
| 1777523881 | 25° C | 56% | 1016.1 hPa | - | - | - | - |
| 1777523271 | 23.89° C | 56% | 1016.2 hPa | - | - | - | - |
| 1777522660 | 23.89° C | 54% | 1016.2 hPa | - | - | - | - |
| 1777522050 | 23.89° C | 56% | 1016.5 hPa | - | - | - | - |
| 1777521439 | 23.89° C | 56% | 1016.5 hPa | - | - | - | - |
| 1777520829 | 23.89° C | 56% | 1016.6 hPa | - | - | - | - |
| 1777520218 | 22.78° C | 61% | 1016.8 hPa | - | - | - | - |
| 1777519607 | 22.78° C | 61% | 1016.8 hPa | - | - | - | - |
| 1777518996 | 22.22° C | 58% | 1016.7 hPa | - | - | - | - |
| 1777518386 | 22.22° C | 58% | 1016.7 hPa | - | - | - | - |
| 1777516555 | 22.22° C | 63% | 1017.2 hPa | - | - | - | - |
| 1777515944 | 22.22° C | 60% | 1017.2 hPa | - | - | - | - |
| 1777515333 | 22.22° C | 65% | 1017.2 hPa | - | - | - | - |
| 1777514720 | 22.22° C | 62% | 1017.2 hPa | - | - | - | - |
| 1777514109 | 22.22° C | 64% | 1017.2 hPa | - | - | - | - |
| 1777513496 | 21.11° C | 62% | 1017.1 hPa | - | - | - | - |
| 1777512884 | 21.11° C | 64% | 1017.1 hPa | - | - | - | - |
| 1777512272 | 21.11° C | 64% | 1017.1 hPa | - | - | - | - |
| 1777511661 | 21.11° C | 64% | 1017.2 hPa | - | - | - | - |
| 1777511051 | 21.11° C | 62% | 1017 hPa | - | - | - | - |
| 1777509830 | 22.22° C | 61% | 1016.5 hPa | - | - | - | - |
* Rain since midnight (hover to see other rain measurements)
** Current wind speed in m/s (hover to see current wind gust speed)